sensor_id;sensor_type;location;lat;lon;timestamp;P1;durP1;ratioP1;P2;durP2;ratioP2
52858;SDS011;38721;53.098;6.596;2023-11-19T00:02:21;37.50;;;19.35;;
52858;SDS011;38721;53.098;6.596;2023-11-19T00:04:47;36.40;;;18.40;;
52858;SDS011;38721;53.098;6.596;2023-11-19T00:07:13;38.35;;;19.42;;
52858;SDS011;38721;53.098;6.596;2023-11-19T00:09:42;46.70;;;19.10;;
52858;SDS011;38721;53.098;6.596;2023-11-19T00:12:08;43.65;;;19.40;;
52858;SDS011;38721;53.098;6.596;2023-11-19T00:14:34;40.00;;;20.05;;
52858;SDS011;38721;53.098;6.596;2023-11-19T00:17:00;37.75;;;18.55;;
52858;SDS011;38721;53.098;6.596;2023-11-19T00:19:25;48.97;;;21.08;;
52858;SDS011;38721;53.098;6.596;2023-11-19T00:21:52;46.83;;;21.05;;
52858;SDS011;38721;53.098;6.596;2023-11-19T00:24:18;42.33;;;18.98;;
52858;SDS011;38721;53.098;6.596;2023-11-19T00:26:43;38.35;;;18.80;;
52858;SDS011;38721;53.098;6.596;2023-11-19T00:29:09;40.33;;;18.98;;
52858;SDS011;38721;53.098;6.596;2023-11-19T00:31:35;35.80;;;16.33;;
52858;SDS011;38721;53.098;6.596;2023-11-19T00:34:01;40.22;;;17.60;;
52858;SDS011;38721;53.098;6.596;2023-11-19T00:36:27;40.80;;;16.92;;
52858;SDS011;38721;53.098;6.596;2023-11-19T00:38:54;39.40;;;15.32;;
52858;SDS011;38721;53.098;6.596;2023-11-19T00:41:19;39.03;;;13.55;;
52858;SDS011;38721;53.098;6.596;2023-11-19T00:43:45;32.33;;;12.73;;
52858;SDS011;38721;53.098;6.596;2023-11-19T00:46:11;31.17;;;12.98;;
52858;SDS011;38721;53.098;6.596;2023-11-19T00:48:37;34.60;;;11.90;;
52858;SDS011;38721;53.098;6.596;2023-11-19T00:51:03;39.47;;;11.80;;
52858;SDS011;38721;53.098;6.596;2023-11-19T00:53:29;36.08;;;11.40;;
52858;SDS011;38721;53.098;6.596;2023-11-19T00:55:55;40.13;;;11.55;;
52858;SDS011;38721;53.098;6.596;2023-11-19T00:58:22;38.42;;;10.45;;
52858;SDS011;38721;53.098;6.596;2023-11-19T01:00:47;40.80;;;9.57;;
52858;SDS011;38721;53.098;6.596;2023-11-19T01:03:13;29.25;;;8.65;;
52858;SDS011;38721;53.098;6.596;2023-11-19T01:05:40;37.92;;;7.55;;
52858;SDS011;38721;53.098;6.596;2023-11-19T01:08:06;32.92;;;7.78;;
52858;SDS011;38721;53.098;6.596;2023-11-19T01:10:33;27.75;;;6.95;;
52858;SDS011;38721;53.098;6.596;2023-11-19T01:12:59;42.25;;;7.75;;
52858;SDS011;38721;53.098;6.596;2023-11-19T01:15:24;36.38;;;7.35;;
52858;SDS011;38721;53.098;6.596;2023-11-19T01:17:51;31.05;;;6.78;;
52858;SDS011;38721;53.098;6.596;2023-11-19T01:20:17;28.85;;;5.95;;
52858;SDS011;38721;53.098;6.596;2023-11-19T01:22:43;33.40;;;7.18;;
52858;SDS011;38721;53.098;6.596;2023-11-19T01:25:13;37.17;;;7.78;;
52858;SDS011;38721;53.098;6.596;2023-11-19T01:27:39;34.15;;;6.43;;
52858;SDS011;38721;53.098;6.596;2023-11-19T01:30:05;37.22;;;6.70;;
52858;SDS011;38721;53.098;6.596;2023-11-19T01:32:34;37.53;;;6.22;;
52858;SDS011;38721;53.098;6.596;2023-11-19T01:35:02;28.70;;;6.20;;
52858;SDS011;38721;53.098;6.596;2023-11-19T01:37:29;34.03;;;6.22;;
52858;SDS011;38721;53.098;6.596;2023-11-19T01:39:56;36.35;;;6.90;;
52858;SDS011;38721;53.098;6.596;2023-11-19T01:42:22;31.65;;;5.85;;
52858;SDS011;38721;53.098;6.596;2023-11-19T01:45:00;32.75;;;6.10;;
52858;SDS011;38721;53.098;6.596;2023-11-19T01:47:26;37.05;;;7.50;;
52858;SDS011;38721;53.098;6.596;2023-11-19T01:49:53;34.83;;;6.25;;
52858;SDS011;38721;53.098;6.596;2023-11-19T01:52:21;34.38;;;6.68;;
52858;SDS011;38721;53.098;6.596;2023-11-19T01:54:47;30.70;;;7.20;;
52858;SDS011;38721;53.098;6.596;2023-11-19T01:57:14;34.63;;;6.93;;
52858;SDS011;38721;53.098;6.596;2023-11-19T01:59:40;29.75;;;6.03;;
52858;SDS011;38721;53.098;6.596;2023-11-19T02:02:07;33.20;;;5.82;;
52858;SDS011;38721;53.098;6.596;2023-11-19T02:04:33;31.15;;;6.45;;
52858;SDS011;38721;53.098;6.596;2023-11-19T02:07:00;30.13;;;5.90;;
52858;SDS011;38721;53.098;6.596;2023-11-19T02:09:28;32.60;;;5.78;;
52858;SDS011;38721;53.098;6.596;2023-11-19T02:11:55;33.92;;;5.95;;
52858;SDS011;38721;53.098;6.596;2023-11-19T02:14:24;34.33;;;6.07;;
52858;SDS011;38721;53.098;6.596;2023-11-19T02:16:51;36.55;;;7.00;;
52858;SDS011;38721;53.098;6.596;2023-11-19T02:19:20;31.42;;;5.60;;
52858;SDS011;38721;53.098;6.596;2023-11-19T02:21:46;36.45;;;6.55;;
52858;SDS011;38721;53.098;6.596;2023-11-19T02:24:12;31.77;;;6.20;;
52858;SDS011;38721;53.098;6.596;2023-11-19T02:29:24;34.85;;;6.10;;
52858;SDS011;38721;53.098;6.596;2023-11-19T02:31:50;31.65;;;6.53;;
52858;SDS011;38721;53.098;6.596;2023-11-19T02:34:15;31.75;;;7.50;;
52858;SDS011;38721;53.098;6.596;2023-11-19T02:36:41;37.67;;;7.00;;
52858;SDS011;38721;53.098;6.596;2023-11-19T02:39:07;38.38;;;6.57;;
52858;SDS011;38721;53.098;6.596;2023-11-19T02:41:36;27.05;;;6.35;;
52858;SDS011;38721;53.098;6.596;2023-11-19T02:44:05;31.90;;;6.47;;
52858;SDS011;38721;53.098;6.596;2023-11-19T02:46:31;34.08;;;6.85;;
52858;SDS011;38721;53.098;6.596;2023-11-19T02:48:57;32.78;;;6.78;;
52858;SDS011;38721;53.098;6.596;2023-11-19T02:51:23;30.70;;;6.97;;
52858;SDS011;38721;53.098;6.596;2023-11-19T02:53:48;39.20;;;7.82;;
52858;SDS011;38721;53.098;6.596;2023-11-19T02:56:14;33.78;;;6.57;;
52858;SDS011;38721;53.098;6.596;2023-11-19T02:58:51;30.42;;;6.28;;
52858;SDS011;38721;53.098;6.596;2023-11-19T03:01:23;33.85;;;6.22;;
52858;SDS011;38721;53.098;6.596;2023-11-19T03:03:54;29.65;;;6.10;;
52858;SDS011;38721;53.098;6.596;2023-11-19T03:06:22;29.17;;;6.22;;
52858;SDS011;38721;53.098;6.596;2023-11-19T03:08:47;28.67;;;6.47;;
52858;SDS011;38721;53.098;6.596;2023-11-19T03:11:13;36.50;;;6.93;;
52858;SDS011;38721;53.098;6.596;2023-11-19T03:13:39;37.08;;;6.93;;
52858;SDS011;38721;53.098;6.596;2023-11-19T03:16:05;34.38;;;5.93;;
52858;SDS011;38721;53.098;6.596;2023-11-19T03:18:32;32.10;;;6.70;;
52858;SDS011;38721;53.098;6.596;2023-11-19T03:20:58;37.13;;;6.47;;
52858;SDS011;38721;53.098;6.596;2023-11-19T03:23:24;37.65;;;6.18;;
52858;SDS011;38721;53.098;6.596;2023-11-19T03:25:52;29.15;;;6.03;;
52858;SDS011;38721;53.098;6.596;2023-11-19T03:28:18;36.03;;;6.38;;
52858;SDS011;38721;53.098;6.596;2023-11-19T03:30:44;30.65;;;6.20;;
52858;SDS011;38721;53.098;6.596;2023-11-19T03:33:09;31.77;;;6.30;;
52858;SDS011;38721;53.098;6.596;2023-11-19T03:35:35;28.42;;;5.20;;
52858;SDS011;38721;53.098;6.596;2023-11-19T03:38:01;33.30;;;6.82;;
52858;SDS011;38721;53.098;6.596;2023-11-19T03:40:27;29.85;;;7.28;;
52858;SDS011;38721;53.098;6.596;2023-11-19T03:42:55;38.63;;;6.43;;
52858;SDS011;38721;53.098;6.596;2023-11-19T03:45:22;41.15;;;6.30;;
52858;SDS011;38721;53.098;6.596;2023-11-19T03:47:48;31.17;;;5.68;;
52858;SDS011;38721;53.098;6.596;2023-11-19T03:50:15;28.77;;;6.13;;
52858;SDS011;38721;53.098;6.596;2023-11-19T03:52:40;32.03;;;5.80;;
52858;SDS011;38721;53.098;6.596;2023-11-19T03:55:06;34.75;;;6.57;;
52858;SDS011;38721;53.098;6.596;2023-11-19T03:57:36;35.20;;;7.75;;
52858;SDS011;38721;53.098;6.596;2023-11-19T04:00:02;34.00;;;7.68;;
52858;SDS011;38721;53.098;6.596;2023-11-19T04:02:34;30.73;;;5.97;;
52858;SDS011;38721;53.098;6.596;2023-11-19T04:05:00;39.78;;;6.20;;
52858;SDS011;38721;53.098;6.596;2023-11-19T04:07:26;34.22;;;6.82;;
52858;SDS011;38721;53.098;6.596;2023-11-19T04:09:52;35.42;;;6.30;;
52858;SDS011;38721;53.098;6.596;2023-11-19T04:12:17;31.95;;;6.18;;
52858;SDS011;38721;53.098;6.596;2023-11-19T04:14:43;40.53;;;6.57;;
52858;SDS011;38721;53.098;6.596;2023-11-19T04:17:09;38.97;;;7.38;;
52858;SDS011;38721;53.098;6.596;2023-11-19T04:19:35;35.83;;;7.15;;
52858;SDS011;38721;53.098;6.596;2023-11-19T04:22:01;31.75;;;5.55;;
52858;SDS011;38721;53.098;6.596;2023-11-19T04:24:27;37.03;;;7.78;;
52858;SDS011;38721;53.098;6.596;2023-11-19T04:26:53;40.30;;;7.10;;
52858;SDS011;38721;53.098;6.596;2023-11-19T04:29:18;30.73;;;7.15;;
52858;SDS011;38721;53.098;6.596;2023-11-19T04:31:44;32.83;;;6.65;;
52858;SDS011;38721;53.098;6.596;2023-11-19T04:34:10;29.55;;;6.90;;
52858;SDS011;38721;53.098;6.596;2023-11-19T04:36:36;37.72;;;6.47;;
52858;SDS011;38721;53.098;6.596;2023-11-19T04:39:05;27.38;;;6.30;;
52858;SDS011;38721;53.098;6.596;2023-11-19T04:41:35;40.63;;;7.88;;
52858;SDS011;38721;53.098;6.596;2023-11-19T04:44:01;35.92;;;6.90;;
52858;SDS011;38721;53.098;6.596;2023-11-19T04:46:27;34.55;;;6.60;;
52858;SDS011;38721;53.098;6.596;2023-11-19T04:48:53;36.70;;;8.07;;
52858;SDS011;38721;53.098;6.596;2023-11-19T04:51:18;32.20;;;7.90;;
52858;SDS011;38721;53.098;6.596;2023-11-19T04:53:44;35.50;;;7.05;;
52858;SDS011;38721;53.098;6.596;2023-11-19T04:56:10;36.30;;;7.22;;
52858;SDS011;38721;53.098;6.596;2023-11-19T04:58:37;35.00;;;6.88;;
52858;SDS011;38721;53.098;6.596;2023-11-19T05:01:03;30.95;;;6.88;;
52858;SDS011;38721;53.098;6.596;2023-11-19T05:03:30;28.70;;;6.10;;
52858;SDS011;38721;53.098;6.596;2023-11-19T05:05:56;37.90;;;6.65;;
52858;SDS011;38721;53.098;6.596;2023-11-19T05:08:22;35.50;;;6.68;;
52858;SDS011;38721;53.098;6.596;2023-11-19T05:10:48;34.55;;;7.35;;
52858;SDS011;38721;53.098;6.596;2023-11-19T05:13:14;34.17;;;6.35;;
52858;SDS011;38721;53.098;6.596;2023-11-19T05:15:40;36.83;;;6.72;;
52858;SDS011;38721;53.098;6.596;2023-11-19T05:18:06;31.92;;;6.60;;
52858;SDS011;38721;53.098;6.596;2023-11-19T05:20:31;38.30;;;6.88;;
52858;SDS011;38721;53.098;6.596;2023-11-19T05:22:57;37.85;;;6.55;;
52858;SDS011;38721;53.098;6.596;2023-11-19T05:25:25;35.03;;;7.07;;
52858;SDS011;38721;53.098;6.596;2023-11-19T05:27:53;30.95;;;6.30;;
52858;SDS011;38721;53.098;6.596;2023-11-19T05:30:19;43.42;;;7.93;;
52858;SDS011;38721;53.098;6.596;2023-11-19T05:32:44;34.08;;;5.75;;
52858;SDS011;38721;53.098;6.596;2023-11-19T05:35:10;34.65;;;6.80;;
52858;SDS011;38721;53.098;6.596;2023-11-19T05:37:36;33.67;;;7.00;;
52858;SDS011;38721;53.098;6.596;2023-11-19T05:40:02;31.95;;;6.10;;
52858;SDS011;38721;53.098;6.596;2023-11-19T05:42:31;37.20;;;6.85;;
52858;SDS011;38721;53.098;6.596;2023-11-19T05:44:57;33.33;;;6.60;;
52858;SDS011;38721;53.098;6.596;2023-11-19T05:47:22;33.92;;;6.53;;
52858;SDS011;38721;53.098;6.596;2023-11-19T05:49:48;42.13;;;7.45;;
52858;SDS011;38721;53.098;6.596;2023-11-19T05:52:14;32.92;;;5.88;;
52858;SDS011;38721;53.098;6.596;2023-11-19T05:54:40;33.15;;;6.40;;
52858;SDS011;38721;53.098;6.596;2023-11-19T05:57:06;36.55;;;6.13;;
52858;SDS011;38721;53.098;6.596;2023-11-19T05:59:35;26.70;;;6.85;;
52858;SDS011;38721;53.098;6.596;2023-11-19T06:02:02;36.33;;;6.53;;
52858;SDS011;38721;53.098;6.596;2023-11-19T06:04:28;38.40;;;7.53;;
52858;SDS011;38721;53.098;6.596;2023-11-19T06:06:53;32.47;;;6.78;;
52858;SDS011;38721;53.098;6.596;2023-11-19T06:09:20;30.25;;;6.03;;
52858;SDS011;38721;53.098;6.596;2023-11-19T06:11:48;38.17;;;6.43;;
52858;SDS011;38721;53.098;6.596;2023-11-19T06:14:16;34.22;;;6.45;;
52858;SDS011;38721;53.098;6.596;2023-11-19T06:16:41;39.60;;;7.97;;
52858;SDS011;38721;53.098;6.596;2023-11-19T06:19:07;39.38;;;7.05;;
52858;SDS011;38721;53.098;6.596;2023-11-19T06:21:33;38.92;;;7.82;;
52858;SDS011;38721;53.098;6.596;2023-11-19T06:24:00;31.52;;;6.72;;
52858;SDS011;38721;53.098;6.596;2023-11-19T06:26:25;39.25;;;7.05;;
52858;SDS011;38721;53.098;6.596;2023-11-19T06:28:52;34.50;;;7.18;;
52858;SDS011;38721;53.098;6.596;2023-11-19T06:31:18;32.28;;;5.93;;
52858;SDS011;38721;53.098;6.596;2023-11-19T06:33:43;38.58;;;7.07;;
52858;SDS011;38721;53.098;6.596;2023-11-19T06:36:09;34.60;;;6.68;;
52858;SDS011;38721;53.098;6.596;2023-11-19T06:38:35;42.50;;;7.50;;
52858;SDS011;38721;53.098;6.596;2023-11-19T06:41:01;34.92;;;7.65;;
52858;SDS011;38721;53.098;6.596;2023-11-19T06:43:27;37.63;;;6.72;;
52858;SDS011;38721;53.098;6.596;2023-11-19T06:45:53;26.45;;;6.60;;
52858;SDS011;38721;53.098;6.596;2023-11-19T06:48:19;35.38;;;6.30;;
52858;SDS011;38721;53.098;6.596;2023-11-19T06:50:45;41.15;;;7.07;;
52858;SDS011;38721;53.098;6.596;2023-11-19T06:53:10;36.70;;;6.90;;
52858;SDS011;38721;53.098;6.596;2023-11-19T06:55:36;33.08;;;6.18;;
52858;SDS011;38721;53.098;6.596;2023-11-19T06:58:02;38.72;;;7.00;;
52858;SDS011;38721;53.098;6.596;2023-11-19T07:00:28;41.35;;;6.45;;
52858;SDS011;38721;53.098;6.596;2023-11-19T07:02:57;34.03;;;6.95;;
52858;SDS011;38721;53.098;6.596;2023-11-19T07:05:23;29.38;;;6.70;;
52858;SDS011;38721;53.098;6.596;2023-11-19T07:07:49;29.92;;;5.82;;
52858;SDS011;38721;53.098;6.596;2023-11-19T07:10:15;42.05;;;6.85;;
52858;SDS011;38721;53.098;6.596;2023-11-19T07:12:41;34.85;;;6.28;;
52858;SDS011;38721;53.098;6.596;2023-11-19T07:15:08;36.85;;;6.97;;
52858;SDS011;38721;53.098;6.596;2023-11-19T07:17:34;34.05;;;6.70;;
52858;SDS011;38721;53.098;6.596;2023-11-19T07:20:00;37.28;;;6.35;;
52858;SDS011;38721;53.098;6.596;2023-11-19T07:22:26;29.38;;;6.03;;
52858;SDS011;38721;53.098;6.596;2023-11-19T07:24:54;33.20;;;6.85;;
52858;SDS011;38721;53.098;6.596;2023-11-19T07:27:20;33.55;;;7.10;;
52858;SDS011;38721;53.098;6.596;2023-11-19T07:29:45;40.83;;;8.00;;
52858;SDS011;38721;53.098;6.596;2023-11-19T07:32:11;38.45;;;7.07;;
52858;SDS011;38721;53.098;6.596;2023-11-19T07:34:38;40.40;;;7.43;;
52858;SDS011;38721;53.098;6.596;2023-11-19T07:37:04;33.17;;;6.82;;
52858;SDS011;38721;53.098;6.596;2023-11-19T07:39:30;33.88;;;6.63;;
52858;SDS011;38721;53.098;6.596;2023-11-19T07:41:56;31.48;;;6.60;;
52858;SDS011;38721;53.098;6.596;2023-11-19T07:44:22;30.52;;;6.15;;
52858;SDS011;38721;53.098;6.596;2023-11-19T07:46:47;39.97;;;7.70;;
52858;SDS011;38721;53.098;6.596;2023-11-19T07:49:13;36.95;;;7.30;;
52858;SDS011;38721;53.098;6.596;2023-11-19T07:51:39;42.15;;;7.20;;
52858;SDS011;38721;53.098;6.596;2023-11-19T07:54:05;39.08;;;6.80;;
52858;SDS011;38721;53.098;6.596;2023-11-19T07:56:34;36.20;;;6.45;;
52858;SDS011;38721;53.098;6.596;2023-11-19T07:59:01;34.83;;;6.22;;
52858;SDS011;38721;53.098;6.596;2023-11-19T08:01:29;39.13;;;6.95;;
52858;SDS011;38721;53.098;6.596;2023-11-19T08:03:55;29.35;;;6.80;;
52858;SDS011;38721;53.098;6.596;2023-11-19T08:06:21;32.05;;;6.93;;
52858;SDS011;38721;53.098;6.596;2023-11-19T08:08:47;33.67;;;6.60;;
52858;SDS011;38721;53.098;6.596;2023-11-19T08:11:13;40.08;;;7.05;;
52858;SDS011;38721;53.098;6.596;2023-11-19T08:13:40;34.80;;;6.72;;
52858;SDS011;38721;53.098;6.596;2023-11-19T08:16:06;34.45;;;6.35;;
52858;SDS011;38721;53.098;6.596;2023-11-19T08:18:31;30.58;;;5.97;;
52858;SDS011;38721;53.098;6.596;2023-11-19T08:20:57;32.25;;;6.20;;
52858;SDS011;38721;53.098;6.596;2023-11-19T08:23:24;37.67;;;7.07;;
52858;SDS011;38721;53.098;6.596;2023-11-19T08:25:50;34.92;;;5.32;;
52858;SDS011;38721;53.098;6.596;2023-11-19T08:28:17;28.92;;;6.53;;
52858;SDS011;38721;53.098;6.596;2023-11-19T08:30:42;33.63;;;7.05;;
52858;SDS011;38721;53.098;6.596;2023-11-19T08:33:09;35.83;;;6.20;;
52858;SDS011;38721;53.098;6.596;2023-11-19T08:35:35;26.20;;;5.45;;
52858;SDS011;38721;53.098;6.596;2023-11-19T08:38:00;33.03;;;6.07;;
52858;SDS011;38721;53.098;6.596;2023-11-19T08:40:27;33.78;;;6.18;;
52858;SDS011;38721;53.098;6.596;2023-11-19T08:42:52;34.03;;;6.57;;
52858;SDS011;38721;53.098;6.596;2023-11-19T08:45:18;39.45;;;7.35;;
52858;SDS011;38721;53.098;6.596;2023-11-19T08:47:44;31.58;;;5.90;;
52858;SDS011;38721;53.098;6.596;2023-11-19T08:50:10;33.30;;;6.45;;
52858;SDS011;38721;53.098;6.596;2023-11-19T08:52:36;34.30;;;6.43;;
52858;SDS011;38721;53.098;6.596;2023-11-19T08:55:03;30.35;;;6.32;;
52858;SDS011;38721;53.098;6.596;2023-11-19T08:57:30;27.95;;;5.97;;
52858;SDS011;38721;53.098;6.596;2023-11-19T08:59:57;31.17;;;6.28;;
52858;SDS011;38721;53.098;6.596;2023-11-19T09:02:23;36.17;;;6.45;;
52858;SDS011;38721;53.098;6.596;2023-11-19T09:04:49;42.22;;;6.97;;
52858;SDS011;38721;53.098;6.596;2023-11-19T09:07:14;45.47;;;6.97;;
52858;SDS011;38721;53.098;6.596;2023-11-19T09:09:40;33.58;;;6.38;;
52858;SDS011;38721;53.098;6.596;2023-11-19T09:12:06;32.38;;;6.28;;
52858;SDS011;38721;53.098;6.596;2023-11-19T09:14:32;35.75;;;5.63;;
52858;SDS011;38721;53.098;6.596;2023-11-19T09:16:58;36.85;;;6.57;;
52858;SDS011;38721;53.098;6.596;2023-11-19T09:19:24;37.75;;;6.85;;
52858;SDS011;38721;53.098;6.596;2023-11-19T09:21:51;36.70;;;7.25;;
52858;SDS011;38721;53.098;6.596;2023-11-19T09:24:18;34.03;;;6.53;;
52858;SDS011;38721;53.098;6.596;2023-11-19T09:26:43;38.50;;;7.07;;
52858;SDS011;38721;53.098;6.596;2023-11-19T09:29:09;30.85;;;6.35;;
52858;SDS011;38721;53.098;6.596;2023-11-19T09:31:35;32.25;;;7.35;;
52858;SDS011;38721;53.098;6.596;2023-11-19T09:34:03;35.50;;;6.10;;
52858;SDS011;38721;53.098;6.596;2023-11-19T09:36:28;37.15;;;6.75;;
52858;SDS011;38721;53.098;6.596;2023-11-19T09:38:54;31.88;;;5.93;;
52858;SDS011;38721;53.098;6.596;2023-11-19T09:41:20;30.95;;;5.82;;
52858;SDS011;38721;53.098;6.596;2023-11-19T09:43:46;34.67;;;7.65;;
52858;SDS011;38721;53.098;6.596;2023-11-19T09:46:13;39.92;;;6.38;;
52858;SDS011;38721;53.098;6.596;2023-11-19T09:48:40;41.38;;;6.28;;
52858;SDS011;38721;53.098;6.596;2023-11-19T09:51:10;33.95;;;7.22;;
52858;SDS011;38721;53.098;6.596;2023-11-19T09:53:36;33.90;;;5.82;;
52858;SDS011;38721;53.098;6.596;2023-11-19T09:56:03;28.80;;;5.75;;
52858;SDS011;38721;53.098;6.596;2023-11-19T09:58:30;29.50;;;5.40;;
52858;SDS011;38721;53.098;6.596;2023-11-19T10:00:57;31.10;;;5.97;;
52858;SDS011;38721;53.098;6.596;2023-11-19T10:03:24;28.50;;;6.85;;
52858;SDS011;38721;53.098;6.596;2023-11-19T10:05:52;34.13;;;6.90;;
52858;SDS011;38721;53.098;6.596;2023-11-19T10:08:21;31.35;;;5.80;;
52858;SDS011;38721;53.098;6.596;2023-11-19T10:10:47;32.05;;;6.50;;
52858;SDS011;38721;53.098;6.596;2023-11-19T10:13:13;42.78;;;6.97;;
52858;SDS011;38721;53.098;6.596;2023-11-19T10:15:39;35.28;;;6.63;;
52858;SDS011;38721;53.098;6.596;2023-11-19T10:18:05;33.40;;;6.25;;
52858;SDS011;38721;53.098;6.596;2023-11-19T10:20:37;35.90;;;7.07;;
52858;SDS011;38721;53.098;6.596;2023-11-19T10:23:05;26.00;;;5.30;;
52858;SDS011;38721;53.098;6.596;2023-11-19T10:25:31;30.40;;;6.07;;
52858;SDS011;38721;53.098;6.596;2023-11-19T10:27:58;37.63;;;6.55;;
52858;SDS011;38721;53.098;6.596;2023-11-19T10:30:24;37.63;;;6.82;;
52858;SDS011;38721;53.098;6.596;2023-11-19T10:35:35;31.85;;;5.93;;
52858;SDS011;38721;53.098;6.596;2023-11-19T10:38:23;29.92;;;6.30;;
52858;SDS011;38721;53.098;6.596;2023-11-19T10:40:50;39.78;;;6.35;;
52858;SDS011;38721;53.098;6.596;2023-11-19T10:43:17;30.45;;;6.00;;
52858;SDS011;38721;53.098;6.596;2023-11-19T10:45:49;31.73;;;6.30;;
52858;SDS011;38721;53.098;6.596;2023-11-19T10:48:15;33.50;;;6.53;;
52858;SDS011;38721;53.098;6.596;2023-11-19T10:50:42;34.50;;;6.30;;
52858;SDS011;38721;53.098;6.596;2023-11-19T10:53:10;33.08;;;5.47;;
52858;SDS011;38721;53.098;6.596;2023-11-19T10:55:38;33.70;;;6.05;;
52858;SDS011;38721;53.098;6.596;2023-11-19T11:03:23;33.97;;;5.80;;
52858;SDS011;38721;53.098;6.596;2023-11-19T11:05:50;32.38;;;5.93;;
52858;SDS011;38721;53.098;6.596;2023-11-19T11:08:17;26.60;;;5.32;;
52858;SDS011;38721;53.098;6.596;2023-11-19T11:10:48;27.00;;;6.22;;
52858;SDS011;38721;53.098;6.596;2023-11-19T11:13:18;33.65;;;6.30;;
52858;SDS011;38721;53.098;6.596;2023-11-19T11:15:45;33.03;;;6.10;;
52858;SDS011;38721;53.098;6.596;2023-11-19T11:18:12;30.65;;;5.43;;
52858;SDS011;38721;53.098;6.596;2023-11-19T11:20:38;30.20;;;5.85;;
52858;SDS011;38721;53.098;6.596;2023-11-19T11:28:48;30.67;;;5.85;;
52858;SDS011;38721;53.098;6.596;2023-11-19T11:34:31;30.40;;;6.07;;
52858;SDS011;38721;53.098;6.596;2023-11-19T11:37:20;33.47;;;5.80;;
52858;SDS011;38721;53.098;6.596;2023-11-19T11:40:08;37.78;;;6.20;;
52858;SDS011;38721;53.098;6.596;2023-11-19T11:42:41;30.50;;;5.50;;
52858;SDS011;38721;53.098;6.596;2023-11-19T11:45:07;29.20;;;5.47;;
52858;SDS011;38721;53.098;6.596;2023-11-19T11:50:13;29.30;;;5.85;;
52858;SDS011;38721;53.098;6.596;2023-11-19T11:57:49;32.58;;;5.90;;
52858;SDS011;38721;53.098;6.596;2023-11-19T12:00:22;31.48;;;5.45;;
52858;SDS011;38721;53.098;6.596;2023-11-19T12:02:59;36.83;;;6.65;;
52858;SDS011;38721;53.098;6.596;2023-11-19T12:05:26;28.13;;;5.60;;
52858;SDS011;38721;53.098;6.596;2023-11-19T12:10:25;28.60;;;5.55;;
52858;SDS011;38721;53.098;6.596;2023-11-19T12:12:58;30.77;;;6.13;;
52858;SDS011;38721;53.098;6.596;2023-11-19T12:15:23;37.15;;;6.22;;
52858;SDS011;38721;53.098;6.596;2023-11-19T12:17:52;30.08;;;6.05;;
52858;SDS011;38721;53.098;6.596;2023-11-19T12:20:18;37.58;;;6.05;;
52858;SDS011;38721;53.098;6.596;2023-11-19T12:22:46;21.77;;;4.75;;
52858;SDS011;38721;53.098;6.596;2023-11-19T12:25:14;36.83;;;6.30;;
52858;SDS011;38721;53.098;6.596;2023-11-19T12:27:45;31.90;;;5.13;;
52858;SDS011;38721;53.098;6.596;2023-11-19T12:30:16;34.17;;;6.10;;
52858;SDS011;38721;53.098;6.596;2023-11-19T12:32:46;30.05;;;6.00;;
52858;SDS011;38721;53.098;6.596;2023-11-19T12:35:12;26.48;;;5.35;;
52858;SDS011;38721;53.098;6.596;2023-11-19T12:37:45;28.85;;;5.40;;
52858;SDS011;38721;53.098;6.596;2023-11-19T12:40:12;31.73;;;6.07;;
52858;SDS011;38721;53.098;6.596;2023-11-19T12:42:45;27.88;;;5.80;;
52858;SDS011;38721;53.098;6.596;2023-11-19T12:45:12;28.02;;;5.25;;
52858;SDS011;38721;53.098;6.596;2023-11-19T12:47:44;25.40;;;5.72;;
52858;SDS011;38721;53.098;6.596;2023-11-19T12:50:14;20.58;;;4.95;;
52858;SDS011;38721;53.098;6.596;2023-11-19T12:52:42;28.85;;;5.70;;
52858;SDS011;38721;53.098;6.596;2023-11-19T12:55:27;27.63;;;5.03;;
52858;SDS011;38721;53.098;6.596;2023-11-19T12:57:54;22.30;;;5.45;;
52858;SDS011;38721;53.098;6.596;2023-11-19T13:00:24;25.65;;;5.15;;
52858;SDS011;38721;53.098;6.596;2023-11-19T13:02:52;27.63;;;4.75;;
52858;SDS011;38721;53.098;6.596;2023-11-19T13:08:08;28.83;;;4.80;;
52858;SDS011;38721;53.098;6.596;2023-11-19T13:10:49;26.67;;;5.95;;
52858;SDS011;38721;53.098;6.596;2023-11-19T13:13:21;19.83;;;5.15;;
52858;SDS011;38721;53.098;6.596;2023-11-19T13:15:47;23.52;;;5.57;;
52858;SDS011;38721;53.098;6.596;2023-11-19T13:18:15;27.92;;;5.10;;
52858;SDS011;38721;53.098;6.596;2023-11-19T13:20:41;24.13;;;4.68;;
52858;SDS011;38721;53.098;6.596;2023-11-19T13:23:08;23.45;;;5.53;;
52858;SDS011;38721;53.098;6.596;2023-11-19T13:25:33;26.50;;;5.05;;
52858;SDS011;38721;53.098;6.596;2023-11-19T13:27:59;24.58;;;5.53;;
52858;SDS011;38721;53.098;6.596;2023-11-19T13:30:25;23.40;;;5.05;;
52858;SDS011;38721;53.098;6.596;2023-11-19T13:32:51;20.17;;;4.53;;
52858;SDS011;38721;53.098;6.596;2023-11-19T13:35:19;28.77;;;5.50;;
52858;SDS011;38721;53.098;6.596;2023-11-19T13:37:46;22.52;;;4.85;;
52858;SDS011;38721;53.098;6.596;2023-11-19T13:40:12;25.52;;;4.85;;
52858;SDS011;38721;53.098;6.596;2023-11-19T13:42:40;29.17;;;4.75;;
52858;SDS011;38721;53.098;6.596;2023-11-19T13:45:10;23.17;;;5.00;;
52858;SDS011;38721;53.098;6.596;2023-11-19T13:47:41;27.60;;;5.35;;
52858;SDS011;38721;53.098;6.596;2023-11-19T13:50:09;26.42;;;5.18;;
52858;SDS011;38721;53.098;6.596;2023-11-19T13:52:36;29.35;;;5.55;;
52858;SDS011;38721;53.098;6.596;2023-11-19T13:55:06;31.63;;;5.28;;
52858;SDS011;38721;53.098;6.596;2023-11-19T13:57:36;25.60;;;5.32;;
52858;SDS011;38721;53.098;6.596;2023-11-19T14:00:02;20.63;;;4.63;;
52858;SDS011;38721;53.098;6.596;2023-11-19T14:02:32;26.10;;;4.82;;
52858;SDS011;38721;53.098;6.596;2023-11-19T14:04:58;22.63;;;5.25;;
52858;SDS011;38721;53.098;6.596;2023-11-19T14:07:25;24.17;;;4.88;;
52858;SDS011;38721;53.098;6.596;2023-11-19T14:09:50;24.27;;;4.78;;
52858;SDS011;38721;53.098;6.596;2023-11-19T14:12:16;26.70;;;4.93;;
52858;SDS011;38721;53.098;6.596;2023-11-19T14:14:42;25.42;;;5.72;;
52858;SDS011;38721;53.098;6.596;2023-11-19T14:17:08;28.30;;;5.70;;
52858;SDS011;38721;53.098;6.596;2023-11-19T14:19:36;26.02;;;5.38;;
52858;SDS011;38721;53.098;6.596;2023-11-19T14:22:01;22.33;;;4.88;;
52858;SDS011;38721;53.098;6.596;2023-11-19T14:24:27;27.02;;;5.18;;
52858;SDS011;38721;53.098;6.596;2023-11-19T14:26:53;24.77;;;5.28;;
52858;SDS011;38721;53.098;6.596;2023-11-19T14:29:18;31.13;;;5.63;;
52858;SDS011;38721;53.098;6.596;2023-11-19T14:31:44;24.63;;;5.15;;
52858;SDS011;38721;53.098;6.596;2023-11-19T14:34:10;26.85;;;5.72;;
52858;SDS011;38721;53.098;6.596;2023-11-19T14:36:36;26.60;;;5.57;;
52858;SDS011;38721;53.098;6.596;2023-11-19T14:39:01;22.80;;;5.43;;
52858;SDS011;38721;53.098;6.596;2023-11-19T14:41:28;27.67;;;6.10;;
52858;SDS011;38721;53.098;6.596;2023-11-19T14:43:54;26.08;;;5.60;;
52858;SDS011;38721;53.098;6.596;2023-11-19T14:46:20;25.77;;;5.43;;
52858;SDS011;38721;53.098;6.596;2023-11-19T14:48:46;28.60;;;5.65;;
52858;SDS011;38721;53.098;6.596;2023-11-19T14:51:11;27.08;;;5.57;;
52858;SDS011;38721;53.098;6.596;2023-11-19T14:53:37;37.10;;;5.95;;
52858;SDS011;38721;53.098;6.596;2023-11-19T14:56:03;26.10;;;6.43;;
52858;SDS011;38721;53.098;6.596;2023-11-19T14:58:32;32.38;;;5.85;;
52858;SDS011;38721;53.098;6.596;2023-11-19T15:00:57;25.20;;;5.03;;
52858;SDS011;38721;53.098;6.596;2023-11-19T15:03:23;33.75;;;5.70;;
52858;SDS011;38721;53.098;6.596;2023-11-19T15:05:49;28.10;;;5.15;;